createdAt,value
2023-02-14T00:01:07.776Z,15.60
2023-02-14T00:04:09.200Z,15.97
2023-02-14T00:07:11.490Z,15.90
2023-02-14T00:10:12.854Z,15.77
2023-02-14T00:13:14.295Z,15.93
2023-02-14T00:16:15.811Z,15.30
2023-02-14T00:19:18.487Z,16.10
2023-02-14T00:22:19.879Z,15.53
2023-02-14T00:25:21.332Z,16.07
2023-02-14T00:28:22.732Z,15.93
2023-02-14T00:31:24.329Z,15.93
2023-02-14T00:34:26.345Z,16.30
2023-02-14T00:37:27.727Z,15.57
2023-02-14T00:40:29.183Z,15.40
2023-02-14T00:43:32.657Z,16.80
2023-02-14T00:46:34.263Z,15.40
2023-02-14T00:49:35.935Z,15.97
2023-02-14T00:52:37.343Z,15.57
2023-02-14T00:55:38.768Z,14.97
2023-02-14T00:58:41.051Z,15.70
2023-02-14T01:01:42.597Z,15.40
2023-02-14T01:04:44.385Z,16.33
2023-02-14T01:07:45.804Z,17.13
2023-02-14T01:10:47.414Z,16.27
2023-02-14T01:13:50.071Z,17.17
2023-02-14T01:16:51.530Z,17.13
2023-02-14T01:19:53.868Z,15.60
2023-02-14T01:22:55.264Z,16.47
2023-02-14T01:25:56.640Z,17.00
2023-02-14T01:28:58.320Z,16.60
2023-02-14T01:31:59.800Z,16.27
2023-02-14T01:35:01.568Z,17.07
2023-02-14T01:38:03.011Z,17.27
2023-02-14T01:41:04.514Z,17.77
2023-02-14T01:44:15.086Z,17.20
2023-02-14T01:47:17.397Z,18.03
2023-02-14T01:50:41.506Z,17.80
2023-02-14T01:53:43.310Z,18.13
2023-02-14T01:56:50.609Z,18.70
2023-02-14T02:00:17.301Z,18.47
2023-02-14T02:03:20.577Z,18.87
2023-02-14T02:06:28.042Z,18.27
2023-02-14T02:09:34.512Z,18.20
2023-02-14T02:12:36.122Z,19.57
2023-02-14T02:16:21.737Z,17.57
2023-02-14T02:19:54.567Z,19.30
2023-02-14T02:23:47.790Z,19.83
2023-02-14T02:27:00.619Z,18.73
2023-02-14T02:30:21.962Z,19.13
2023-02-14T02:33:51.701Z,17.40
2023-02-14T02:37:31.726Z,18.73
2023-02-14T02:40:45.127Z,19.47
2023-02-14T02:44:01.187Z,19.63
2023-02-14T02:47:11.570Z,19.90
2023-02-14T02:50:52.350Z,18.43
2023-02-14T02:54:02.756Z,19.03
2023-02-14T02:57:12.808Z,19.87
2023-02-14T03:00:16.001Z,18.73
2023-02-14T03:03:37.489Z,17.83
2023-02-14T03:06:39.084Z,19.13
2023-02-14T03:09:42.055Z,17.83
2023-02-14T03:13:28.683Z,18.97
2023-02-14T03:16:38.422Z,18.70
2023-02-14T03:20:11.275Z,18.83
2023-02-14T03:23:30.406Z,18.47
2023-02-14T03:26:45.827Z,18.53
2023-02-14T03:30:08.398Z,18.80
2023-02-14T03:33:33.537Z,18.27
2023-02-14T03:36:41.879Z,18.77
2023-02-14T03:39:52.718Z,19.40
2023-02-14T03:43:02.702Z,18.73
2023-02-14T03:46:10.077Z,18.50
2023-02-14T03:49:16.709Z,18.43
2023-02-14T03:52:20.063Z,18.93
2023-02-14T03:55:32.953Z,18.47
2023-02-14T03:58:46.737Z,17.80
2023-02-14T04:01:55.933Z,17.63
2023-02-14T04:04:59.943Z,18.67
2023-02-14T04:08:01.343Z,17.83
2023-02-14T04:11:04.843Z,18.30
2023-02-14T04:14:06.456Z,18.40
2023-02-14T04:17:27.123Z,19.23
2023-02-14T04:20:29.402Z,18.10
2023-02-14T04:23:30.798Z,17.43
2023-02-14T04:26:32.197Z,19.13
2023-02-14T04:29:33.584Z,18.27
2023-02-14T04:32:34.963Z,18.33
2023-02-14T04:35:36.816Z,18.27
2023-02-14T04:38:38.199Z,17.60
2023-02-14T04:41:39.583Z,18.30
2023-02-14T04:44:41.013Z,17.77
2023-02-14T04:47:42.389Z,18.20
2023-02-14T04:50:43.780Z,18.10
2023-02-14T04:53:45.161Z,18.37
2023-02-14T04:56:46.535Z,18.37
2023-02-14T04:59:47.931Z,18.13
2023-02-14T05:02:49.460Z,18.40
2023-02-14T05:05:50.868Z,18.20
2023-02-14T05:08:52.244Z,17.30
2023-02-14T05:11:54.098Z,18.30
2023-02-14T05:14:56.097Z,16.87
2023-02-14T05:18:01.575Z,19.10
2023-02-14T05:21:03.200Z,18.27
2023-02-14T05:24:05.038Z,18.07
2023-02-14T05:27:07.476Z,18.53
2023-02-14T05:30:09.858Z,17.40
2023-02-14T05:33:11.496Z,18.43
2023-02-14T05:36:13.150Z,19.43
2023-02-14T05:39:14.643Z,18.83
2023-02-14T05:42:16.030Z,19.57
2023-02-14T05:45:17.416Z,19.23
2023-02-14T05:48:18.811Z,18.43
2023-02-14T05:51:20.198Z,18.90
2023-02-14T05:54:21.633Z,19.57
2023-02-14T05:57:23.183Z,19.60
2023-02-14T06:00:24.840Z,19.57
2023-02-14T06:03:26.693Z,18.23
2023-02-14T06:06:28.121Z,18.23
2023-02-14T06:09:29.504Z,18.70
2023-02-14T06:12:30.876Z,19.47
2023-02-14T06:15:32.252Z,18.30
2023-02-14T06:18:33.774Z,18.80
2023-02-14T06:21:35.332Z,18.40
2023-02-14T06:24:36.966Z,18.67
2023-02-14T06:27:38.371Z,18.93
2023-02-14T06:30:39.919Z,18.77
2023-02-14T06:33:41.437Z,18.90
2023-02-14T06:36:43.169Z,18.23
2023-02-14T06:39:45.276Z,18.60
2023-02-14T06:42:46.740Z,18.73
2023-02-14T06:45:48.178Z,18.27
2023-02-14T06:48:49.645Z,24.63
2023-02-14T06:51:51.088Z,19.30
2023-02-14T06:54:52.512Z,17.93
2023-02-14T06:57:53.892Z,18.30
2023-02-14T07:00:56.051Z,18.70
2023-02-14T07:03:57.437Z,18.20
2023-02-14T07:06:58.941Z,18.93
2023-02-14T07:10:00.443Z,17.90
2023-02-14T07:13:02.181Z,19.10
2023-02-14T07:16:04.031Z,19.50
2023-02-14T07:19:05.448Z,18.80
2023-02-14T07:22:06.854Z,19.80
2023-02-14T07:25:08.604Z,19.80
2023-02-14T07:28:10.059Z,20.20
2023-02-14T07:31:12.396Z,19.63
2023-02-14T07:34:13.921Z,21.13
2023-02-14T07:37:16.678Z,19.47
2023-02-14T07:40:19.922Z,19.60
2023-02-14T07:43:21.316Z,19.83
2023-02-14T07:46:22.716Z,19.33
2023-02-14T07:49:24.222Z,19.27
2023-02-14T07:52:25.670Z,19.00
2023-02-14T07:55:27.111Z,19.23
2023-02-14T07:58:28.487Z,19.33
2023-02-14T08:01:30.833Z,19.00
2023-02-14T08:04:33.866Z,20.13
2023-02-14T08:07:35.419Z,19.93
2023-02-14T08:10:36.821Z,19.57
2023-02-14T08:13:38.182Z,18.93
2023-02-14T08:16:39.741Z,20.03
2023-02-14T08:19:41.179Z,20.07
2023-02-14T08:22:42.571Z,18.97
2023-02-14T08:25:44.007Z,20.63
2023-02-14T08:28:45.430Z,19.13
2023-02-14T08:31:47.516Z,19.17
2023-02-14T08:34:49.037Z,20.30
2023-02-14T08:37:50.447Z,19.10
2023-02-14T08:40:52.258Z,17.83
2023-02-14T08:43:53.646Z,18.63
2023-02-14T08:46:55.068Z,19.23
2023-02-14T08:49:56.547Z,19.27
2023-02-14T08:52:58.023Z,18.80
2023-02-14T08:56:08.143Z,20.27
2023-02-14T08:59:09.568Z,18.90
2023-02-14T09:02:16.123Z,20.23
2023-02-14T09:05:17.787Z,19.90
2023-02-14T09:08:19.415Z,19.70
2023-02-14T09:11:22.894Z,20.33
2023-02-14T09:14:24.449Z,20.63
2023-02-14T09:17:25.948Z,20.60
2023-02-14T09:20:27.438Z,19.50
2023-02-14T09:23:28.869Z,20.37
2023-02-14T09:26:30.260Z,20.43
2023-02-14T09:29:33.859Z,20.07
2023-02-14T09:32:35.292Z,18.63
2023-02-14T09:35:36.723Z,18.77
2023-02-14T09:38:38.237Z,21.07
2023-02-14T09:41:55.164Z,20.40
2023-02-14T09:45:06.791Z,19.63
2023-02-14T09:48:22.358Z,20.53
2023-02-14T09:51:28.475Z,20.97
2023-02-14T09:54:33.136Z,21.00
2023-02-14T09:57:56.708Z,18.83
2023-02-14T10:01:22.035Z,18.70
2023-02-14T10:04:34.441Z,19.50
2023-02-14T10:07:57.872Z,20.07
2023-02-14T10:11:06.933Z,19.83
2023-02-14T10:14:14.373Z,19.93
2023-02-14T10:17:22.072Z,18.33
2023-02-14T10:20:35.500Z,20.33
2023-02-14T10:23:41.503Z,18.67
2023-02-14T10:26:44.384Z,20.17
2023-02-14T10:29:45.779Z,18.90
2023-02-14T10:33:13.704Z,19.20
2023-02-14T10:36:44.976Z,20.23
2023-02-14T10:39:58.459Z,19.10
2023-02-14T10:43:18.502Z,20.50
2023-02-14T10:46:47.705Z,19.53
2023-02-14T10:49:57.943Z,19.43
2023-02-14T10:53:21.008Z,19.40
2023-02-14T10:56:36.930Z,20.23
2023-02-14T10:59:58.363Z,20.37
2023-02-14T11:03:05.371Z,20.40
2023-02-14T11:06:08.977Z,20.57
2023-02-14T11:09:12.085Z,18.80
2023-02-14T11:12:31.634Z,19.93
2023-02-14T11:15:39.362Z,19.23
2023-02-14T11:18:41.626Z,20.60
2023-02-14T11:21:45.611Z,20.37
2023-02-14T11:24:48.313Z,20.23
2023-02-14T11:27:55.160Z,23.53
2023-02-14T11:30:56.924Z,21.07
2023-02-14T11:33:59.905Z,21.17
2023-02-14T11:37:01.541Z,19.87
2023-02-14T11:40:05.180Z,24.30
2023-02-14T11:43:14.625Z,21.77
2023-02-14T11:46:27.562Z,20.93
2023-02-14T11:49:34.698Z,20.77
2023-02-14T11:52:49.494Z,20.67
2023-02-14T11:55:53.728Z,19.43
2023-02-14T11:58:59.596Z,20.60
2023-02-14T12:02:11.257Z,21.33
2023-02-14T12:05:28.452Z,19.47
2023-02-14T12:08:31.803Z,20.00
2023-02-14T12:11:33.336Z,20.70
2023-02-14T12:14:35.590Z,19.60
2023-02-14T12:17:39.447Z,19.43
2023-02-14T12:20:49.147Z,19.83
2023-02-14T12:24:12.497Z,19.47
2023-02-14T12:27:29.139Z,18.90
2023-02-14T12:30:33.625Z,19.93
2023-02-14T12:33:35.879Z,19.67
2023-02-14T12:37:01.192Z,19.67
2023-02-14T12:40:12.216Z,18.57
2023-02-14T12:43:40.569Z,19.43
2023-02-14T12:47:09.889Z,19.97
2023-02-14T12:50:33.483Z,19.13
2023-02-14T12:53:56.108Z,20.50
2023-02-14T12:57:21.913Z,20.47
2023-02-14T13:00:55.624Z,19.97
2023-02-14T13:04:15.272Z,20.03
2023-02-14T13:07:19.659Z,20.00
2023-02-14T13:10:45.732Z,20.47
2023-02-14T13:14:04.404Z,20.13
2023-02-14T13:17:16.068Z,20.30
2023-02-14T13:20:42.746Z,20.53
2023-02-14T13:23:53.326Z,20.83
2023-02-14T13:27:05.070Z,20.00
2023-02-14T13:30:16.865Z,19.93
2023-02-14T13:33:26.315Z,20.83
2023-02-14T13:36:28.860Z,19.60
2023-02-14T13:39:38.862Z,22.07
2023-02-14T13:42:47.621Z,21.00
2023-02-14T13:45:54.170Z,21.10
2023-02-14T13:48:59.222Z,21.17
2023-02-14T13:52:04.914Z,20.17
2023-02-14T13:55:09.885Z,20.63
2023-02-14T13:58:21.578Z,19.73
2023-02-14T14:01:39.077Z,19.37
2023-02-14T14:04:40.543Z,20.53
2023-02-14T14:07:41.986Z,20.20
2023-02-14T14:10:52.933Z,20.80
2023-02-14T14:14:25.160Z,19.97
2023-02-14T14:17:27.553Z,19.90
2023-02-14T14:20:29.238Z,20.20
2023-02-14T14:23:34.854Z,19.67
2023-02-14T14:26:47.680Z,22.87
2023-02-14T14:29:53.432Z,19.33
2023-02-14T14:32:55.113Z,19.00
2023-02-14T14:35:58.507Z,19.60
2023-02-14T14:39:00.288Z,18.73
2023-02-14T14:42:07.400Z,19.37
2023-02-14T14:45:26.278Z,18.83
2023-02-14T14:48:32.932Z,20.10
2023-02-14T14:51:35.791Z,18.83
2023-02-14T14:54:37.225Z,19.27
2023-02-14T14:57:39.240Z,20.07
2023-02-14T15:00:51.291Z,19.37
2023-02-14T15:03:52.826Z,19.97
2023-02-14T15:07:18.723Z,19.80
2023-02-14T15:10:31.006Z,19.47
2023-02-14T15:13:53.428Z,18.97
2023-02-14T15:17:00.283Z,18.83
2023-02-14T15:20:05.616Z,18.70
2023-02-14T15:23:07.846Z,19.70
2023-02-14T15:26:17.698Z,19.67
2023-02-14T15:29:26.568Z,19.30
2023-02-14T15:32:32.469Z,19.00
2023-02-14T15:35:39.007Z,19.27
2023-02-14T15:38:41.656Z,18.67
2023-02-14T15:41:44.926Z,19.03
2023-02-14T15:44:46.317Z,19.47
2023-02-14T15:47:51.533Z,19.63
2023-02-14T15:50:56.026Z,20.07
2023-02-14T15:54:03.991Z,22.17
2023-02-14T15:57:17.708Z,21.17
2023-02-14T16:00:21.553Z,22.17
2023-02-14T16:03:26.520Z,22.43
2023-02-14T16:06:39.676Z,22.77
2023-02-14T16:09:41.089Z,22.30
2023-02-14T16:12:42.559Z,23.00
2023-02-14T16:15:59.457Z,23.23
2023-02-14T16:19:01.635Z,22.97
2023-02-14T16:22:03.531Z,24.30
2023-02-14T16:25:05.476Z,24.73
2023-02-14T16:28:07.056Z,23.40
2023-02-14T16:31:12.825Z,24.77
2023-02-14T16:34:16.218Z,24.10
2023-02-14T16:37:38.206Z,24.23
2023-02-14T16:40:43.228Z,25.73
2023-02-14T16:43:45.571Z,24.67
2023-02-14T16:46:46.981Z,25.80
2023-02-14T16:49:50.461Z,24.47
2023-02-14T16:52:51.911Z,25.20
2023-02-14T16:55:55.680Z,25.50
2023-02-14T16:59:00.052Z,26.13
2023-02-14T17:02:02.176Z,25.40
2023-02-14T17:05:04.900Z,25.03
2023-02-14T17:08:09.984Z,26.00
2023-02-14T17:11:11.738Z,28.33
2023-02-14T17:14:17.480Z,27.70
2023-02-14T17:17:20.425Z,27.97
2023-02-14T17:20:22.494Z,27.00
2023-02-14T17:23:24.340Z,30.33
2023-02-14T17:26:25.767Z,29.47
2023-02-14T17:29:27.227Z,29.03
2023-02-14T17:32:28.690Z,26.97
2023-02-14T17:35:30.851Z,27.60
2023-02-14T17:38:33.261Z,28.20
2023-02-14T17:41:34.965Z,27.57
2023-02-14T17:44:37.431Z,28.00
2023-02-14T17:47:39.789Z,27.07
2023-02-14T17:50:41.256Z,27.57
2023-02-14T17:53:42.887Z,28.90
2023-02-14T17:56:44.365Z,30.60
2023-02-14T17:59:46.707Z,29.57
2023-02-14T18:02:49.165Z,29.37
2023-02-14T18:05:50.999Z,29.47
2023-02-14T18:08:56.590Z,30.90
2023-02-14T18:11:58.536Z,32.07
2023-02-14T18:15:00.064Z,32.37
2023-02-14T18:18:01.588Z,34.13
2023-02-14T18:21:04.934Z,32.90
2023-02-14T18:24:07.289Z,33.53
2023-02-14T18:27:08.765Z,34.17
2023-02-14T18:30:10.818Z,33.77
2023-02-14T18:33:13.130Z,33.10
2023-02-14T18:36:17.894Z,32.90
2023-02-14T18:39:20.038Z,34.87
2023-02-14T18:42:21.627Z,32.10
2023-02-14T18:45:23.131Z,29.33
2023-02-14T18:48:24.562Z,31.33
2023-02-14T18:51:27.096Z,31.20
2023-02-14T18:54:28.536Z,34.13
2023-02-14T18:57:30.140Z,31.97
2023-02-14T19:00:33.256Z,29.03
2023-02-14T19:03:34.648Z,28.77
2023-02-14T19:06:36.550Z,28.77
2023-02-14T19:09:40.017Z,29.50
2023-02-14T19:12:41.434Z,28.30
2023-02-14T19:15:42.836Z,28.23
2023-02-14T19:18:44.428Z,28.97
2023-02-14T19:21:45.984Z,29.57
2023-02-14T19:24:48.241Z,28.43
2023-02-14T19:27:49.643Z,29.20
2023-02-14T19:30:51.568Z,24.80
2023-02-14T19:33:53.625Z,24.50
2023-02-14T19:36:57.123Z,24.17
2023-02-14T19:39:58.615Z,23.17
2023-02-14T19:42:59.997Z,23.87
2023-02-14T19:46:04.680Z,22.80
2023-02-14T19:49:06.426Z,26.40
2023-02-14T19:52:24.617Z,40.50
2023-02-14T19:55:27.601Z,27.10
2023-02-14T19:58:29.104Z,28.37
2023-02-14T20:01:34.531Z,25.87
2023-02-14T20:04:35.970Z,22.87
2023-02-14T20:07:37.429Z,24.27
2023-02-14T20:10:38.920Z,24.33
2023-02-14T20:13:40.305Z,22.40
2023-02-14T20:16:41.781Z,22.70
2023-02-14T20:19:43.259Z,22.50
2023-02-14T20:22:44.632Z,22.97
2023-02-14T20:25:46.061Z,23.40
2023-02-14T20:28:48.807Z,23.13
2023-02-14T20:31:52.499Z,24.43
2023-02-14T20:34:54.116Z,22.73
2023-02-14T20:37:55.501Z,21.77
2023-02-14T20:40:57.022Z,21.87
2023-02-14T20:44:07.293Z,21.70
2023-02-14T20:47:10.762Z,29.20
2023-02-14T20:50:12.251Z,28.87
2023-02-14T20:53:13.688Z,21.87
2023-02-14T20:56:15.845Z,27.23
2023-02-14T20:59:26.936Z,27.43
2023-02-14T21:02:28.390Z,21.73
2023-02-14T21:05:29.763Z,22.37
2023-02-14T21:08:31.590Z,20.67
2023-02-14T21:11:33.104Z,21.20
2023-02-14T21:14:34.598Z,22.03
2023-02-14T21:17:36.081Z,21.17
2023-02-14T21:20:38.580Z,22.73
2023-02-14T21:23:41.322Z,22.63
2023-02-14T21:26:43.369Z,21.97
2023-02-14T21:29:45.002Z,21.00
2023-02-14T21:32:46.387Z,21.43
2023-02-14T21:35:47.771Z,22.37
2023-02-14T21:38:49.927Z,21.60
2023-02-14T21:41:51.320Z,22.03
2023-02-14T21:45:11.344Z,21.40
2023-02-14T21:48:31.661Z,20.47
2023-02-14T21:51:33.080Z,22.63
2023-02-14T21:54:34.458Z,20.27
2023-02-14T21:57:35.866Z,21.83
2023-02-14T22:00:37.320Z,19.77
2023-02-14T22:03:38.708Z,20.73
2023-02-14T22:06:41.698Z,20.10
2023-02-14T22:09:43.131Z,20.97
2023-02-14T22:12:44.578Z,21.13
2023-02-14T22:15:46.100Z,20.97
2023-02-14T22:18:47.919Z,21.77
2023-02-14T22:21:49.321Z,21.87
2023-02-14T22:24:50.747Z,21.60
2023-02-14T22:27:52.204Z,21.50
2023-02-14T22:30:53.717Z,20.27
2023-02-14T22:33:55.506Z,21.03
2023-02-14T22:36:57.010Z,20.27
2023-02-14T22:39:58.406Z,20.30
2023-02-14T22:43:00.607Z,19.73
2023-02-14T22:46:07.783Z,18.27
2023-02-14T22:49:09.304Z,19.00
2023-02-14T22:52:10.754Z,19.50
2023-02-14T22:55:12.180Z,19.80
2023-02-14T22:58:13.585Z,21.20
2023-02-14T23:01:17.781Z,20.83
2023-02-14T23:04:24.829Z,21.80
2023-02-14T23:07:26.193Z,21.40
2023-02-14T23:10:27.644Z,20.00
2023-02-14T23:13:47.704Z,19.40
2023-02-14T23:17:07.918Z,19.60
2023-02-14T23:20:27.928Z,19.23
2023-02-14T23:23:33.480Z,19.40
2023-02-14T23:26:37.133Z,19.30
2023-02-14T23:29:38.756Z,19.03
2023-02-14T23:32:40.294Z,19.30
2023-02-14T23:35:41.712Z,18.83
2023-02-14T23:38:43.083Z,18.83
2023-02-14T23:41:47.411Z,20.10
2023-02-14T23:44:49.385Z,19.60
2023-02-14T23:47:50.876Z,21.90
2023-02-14T23:50:52.312Z,22.63
2023-02-14T23:53:54.885Z,21.40
2023-02-14T23:56:57.459Z,21.47
